Connemara — FGSR — position and weather

sailwx.info

Track history (hours):
 
Tides and Currents Weather Stations Pressure Air Temp Water Temp Dewpoint Dewpoint Depression Visibility Wind Speed Wind Dir Waves Ship Positions

Connemara

Last reported at 2017-Nov-23 08:11 UTC. Time now 2017-Nov-25 11:49 UTC.
Position N 47°50' W 004°09'.

Length 20 m.

Type: Fishing. MMSI: 227485000.

Date/timePositionNaut miles runAvg speedWind from/ knotsBaromVisibWave heightAir tempDewpointWater temp
2017-Nov-23 08:11N 47°50' W 004°09'10 6.0
2017-Nov-23 06:32N 47°45' W 004°22'0 8.0
2017-Nov-23 06:29N 47°46' W 004°23'6 8.3
2017-Nov-23 05:47N 47°48' W 004°31'3 8.1
2017-Nov-23 05:23N 47°49' W 004°35'4 7.9
2017-Nov-23 04:52N 47°51' W 004°40'3 7.8
2017-Nov-23 04:30N 47°52' W 004°44'4 7.6
2017-Nov-23 04:00N 47°54' W 004°49'4 7.4
2017-Nov-23 03:30N 47°56' W 004°54'4 7.1
2017-Nov-23 03:00N 47°57' W 004°59'4 7.0
2017-Nov-23 02:30N 47°59' W 005°04'4 7.2
2017-Nov-23 01:58N 48°00' W 005°09'3 7.1
2017-Nov-23 01:31N 48°02' W 005°13'4 6.8
2017-Nov-23 00:58N 48°06' W 005°15'3 7.2
2017-Nov-23 00:31N 48°08' W 005°18'4 7.4
2017-Nov-23 00:00N 48°11' W 005°21'4 7.8
2017-Nov-22 23:30N 48°15' W 005°24'4 7.9
2017-Nov-22 23:00N 48°18' W 005°27'7 7.9
2017-Nov-22 22:10N 48°24' W 005°32'5 7.6
2017-Nov-22 21:34N 48°28' W 005°36'  
2017-Nov-19 21:32N 51°30' W 007°28'0 2.4
2017-Nov-19 21:30N 51°30' W 007°28'1 2.3
2017-Nov-19 20:59N 51°31' W 007°29'1 2.3
2017-Nov-19 20:30N 51°32' W 007°29'1 2.2
2017-Nov-19 20:00N 51°33' W 007°30'8 2.3
2017-Nov-19 16:34N 51°30' W 007°42'0 3.1
2017-Nov-19 16:30N 51°30' W 007°42'4 2.6
2017-Nov-19 14:51N 51°29' W 007°48'1 2.7
2017-Nov-19 14:30N 51°30' W 007°49'1 2.7
2017-Nov-19 13:59N 51°31' W 007°47'1 1.6
2017-Nov-19 13:21N 51°30' W 007°48'1 2.6
2017-Nov-19 13:00N 51°29' W 007°48'1 2.3
2017-Nov-19 12:30N 51°28' W 007°47'1 2.8
2017-Nov-19 11:59N 51°28' W 007°45'1 2.8
2017-Nov-19 11:30N 51°28' W 007°43'1 2.8
2017-Nov-19 11:00N 51°29' W 007°41'2 2.8
2017-Nov-19 10:26N 51°30' W 007°39'3 3.1
2017-Nov-19 09:28N 51°31' W 007°34'1 2.2
2017-Nov-19 09:00N 51°32' W 007°34'1 2.6
2017-Nov-19 08:30N 51°33' W 007°34'1 2.6
2017-Nov-19 08:00N 51°34' W 007°33'1 2.7
2017-Nov-19 07:30N 51°34' W 007°31'10 2.8
2017-Nov-19 03:58N 51°31' W 007°45'1 2.2
2017-Nov-19 03:27N 51°30' W 007°46'1 2.7
2017-Nov-19 03:00N 51°28' W 007°46'2 2.5
2017-Nov-19 02:20N 51°27' W 007°44'15 1.2
2017-Nov-18 13:58N 51°34' W 007°23'14 0.3
2017-Nov-16 12:04N 51°28' W 007°43'0 3.2
2017-Nov-16 12:00N 51°28' W 007°43'1 2.1
2017-Nov-16 11:23N 51°29' W 007°41'3 0.3
2017-Nov-16 03:52N 51°31' W 007°41'1 1.5
2017-Nov-16 03:30N 51°32' W 007°41'1 2.0
2017-Nov-16 03:00N 51°33' W 007°40'1 2.1
2017-Nov-16 02:26N 51°33' W 007°38'1 2.1
2017-Nov-16 01:59N 51°34' W 007°37'1 2.2
2017-Nov-16 01:30N 51°34' W 007°35'1 2.2
2017-Nov-16 00:53N 51°34' W 007°33'1 2.3
2017-Nov-16 00:28N 51°34' W 007°32'3 1.7
2017-Nov-15 22:27N 51°32' W 007°35'1 1.9
2017-Nov-15 22:00N 51°32' W 007°35'1 0.2
2017-Nov-15 15:24N 51°32' W 007°36'2 2.2
2017-Nov-15 14:20N 51°32' W 007°33'1 2.7
2017-Nov-15 13:52N 51°33' W 007°31'7 2.5
2017-Nov-15 11:16N 51°31' W 007°41'1 2.5
2017-Nov-15 11:00N 51°32' W 007°41'1 2.3
2017-Nov-15 10:25N 51°32' W 007°39'2 2.6
2017-Nov-15 09:49N 51°33' W 007°37'1 2.9
2017-Nov-15 09:30N 51°33' W 007°35'4 1.5
2017-Nov-15 07:00N 51°30' W 007°38'3 2.4
2017-Nov-15 05:55N 51°30' W 007°34'2 2.3
2017-Nov-15 05:06N 51°32' W 007°32'1 2.6
2017-Nov-15 04:51N 51°32' W 007°31'1 2.6
2017-Nov-15 04:23N 51°33' W 007°30'1 2.9
2017-Nov-15 03:59N 51°34' W 007°29'9 2.5
2017-Nov-15 00:33N 51°30' W 007°42'0 2.7
2017-Nov-15 00:30N 51°30' W 007°42'2 2.2
2017-Nov-14 23:41N 51°30' W 007°39'0 2.5
2017-Nov-14 23:30N 51°30' W 007°38'2 2.7
2017-Nov-14 22:37N 51°31' W 007°35'5 2.0
2017-Nov-14 19:54N 51°30' W 007°44'1 2.5
2017-Nov-14 19:30N 51°31' W 007°44'1 2.6
2017-Nov-14 19:00N 51°32' W 007°42'2 2.6
2017-Nov-14 18:20N 51°33' W 007°40'1 1.7
2017-Nov-14 17:42N 51°32' W 007°38'1 2.6
2017-Nov-14 17:30N 51°31' W 007°38'1 2.6
2017-Nov-14 16:59N 51°30' W 007°39'1 2.6
2017-Nov-14 16:30N 51°29' W 007°39'1 2.6
2017-Nov-14 16:00N 51°28' W 007°38'1 2.6
2017-Nov-14 15:30N 51°26' W 007°38'1 2.6
2017-Nov-14 15:00N 51°25' W 007°37'3 2.3
2017-Nov-14 13:35N 51°22' W 007°34'0 2.4
2017-Nov-14 13:26N 51°23' W 007°34'1 2.5
2017-Nov-14 12:57N 51°24' W 007°34'1 2.6
2017-Nov-14 12:29N 51°25' W 007°34'3 2.5
2017-Nov-14 11:26N 51°28' W 007°35'3 2.4
2017-Nov-14 10:03N 51°31' W 007°36'1 2.5
2017-Nov-14 09:49N 51°31' W 007°36'1 2.7
2017-Nov-14 09:30N 51°32' W 007°37'0 0.5
2017-Nov-14 09:00N 51°32' W 007°37'4 1.4
2017-Nov-14 06:22N 51°29' W 007°38'1 2.3
2017-Nov-14 05:58N 51°30' W 007°38'1 2.2
2017-Nov-14 05:30N 51°31' W 007°37'1 2.2
2017-Nov-14 04:58N 51°32' W 007°37'1 2.2
2017-Nov-14 04:29N 51°33' W 007°36'1 2.2
2017-Nov-14 03:50N 51°34' W 007°35'2 1.8
2017-Nov-14 02:45N 51°33' W 007°32'  
Track history (hours):
 
Tides and Currents Weather Stations Pressure Air Temp Water Temp Dewpoint Dewpoint Depression Visibility Wind Speed Wind Dir Waves Ship Positions

Connemara

Last reported at 2017-Nov-23 08:11 UTC. Time now 2017-Nov-25 11:49 UTC.
Position N 47°50' W 004°09'.

Length 20 m.

Type: Fishing. MMSI: 227485000.

Date/timePositionNaut miles runAvg speedWind from/ knotsBaromVisibWave heightAir tempDewpointWater temp
2017-Nov-23 08:11N 47°50' W 004°09'10 6.0
2017-Nov-23 06:32N 47°45' W 004°22'0 8.0
2017-Nov-23 06:29N 47°46' W 004°23'6 8.3
2017-Nov-23 05:47N 47°48' W 004°31'3 8.1
2017-Nov-23 05:23N 47°49' W 004°35'4 7.9
2017-Nov-23 04:52N 47°51' W 004°40'3 7.8
2017-Nov-23 04:30N 47°52' W 004°44'4 7.6
2017-Nov-23 04:00N 47°54' W 004°49'4 7.4
2017-Nov-23 03:30N 47°56' W 004°54'4 7.1
2017-Nov-23 03:00N 47°57' W 004°59'4 7.0
2017-Nov-23 02:30N 47°59' W 005°04'4 7.2
2017-Nov-23 01:58N 48°00' W 005°09'3 7.1
2017-Nov-23 01:31N 48°02' W 005°13'4 6.8
2017-Nov-23 00:58N 48°06' W 005°15'3 7.2
2017-Nov-23 00:31N 48°08' W 005°18'4 7.4
2017-Nov-23 00:00N 48°11' W 005°21'4 7.8
2017-Nov-22 23:30N 48°15' W 005°24'4 7.9
2017-Nov-22 23:00N 48°18' W 005°27'7 7.9
2017-Nov-22 22:10N 48°24' W 005°32'5 7.6
2017-Nov-22 21:34N 48°28' W 005°36'  
2017-Nov-19 21:32N 51°30' W 007°28'0 2.4
2017-Nov-19 21:30N 51°30' W 007°28'1 2.3
2017-Nov-19 20:59N 51°31' W 007°29'1 2.3
2017-Nov-19 20:30N 51°32' W 007°29'1 2.2
2017-Nov-19 20:00N 51°33' W 007°30'8 2.3
2017-Nov-19 16:34N 51°30' W 007°42'0 3.1
2017-Nov-19 16:30N 51°30' W 007°42'4 2.6
2017-Nov-19 14:51N 51°29' W 007°48'1 2.7
2017-Nov-19 14:30N 51°30' W 007°49'1 2.7
2017-Nov-19 13:59N 51°31' W 007°47'1 1.6
2017-Nov-19 13:21N 51°30' W 007°48'1 2.6
2017-Nov-19 13:00N 51°29' W 007°48'1 2.3
2017-Nov-19 12:30N 51°28' W 007°47'1 2.8
2017-Nov-19 11:59N 51°28' W 007°45'1 2.8
2017-Nov-19 11:30N 51°28' W 007°43'1 2.8
2017-Nov-19 11:00N 51°29' W 007°41'2 2.8
2017-Nov-19 10:26N 51°30' W 007°39'3 3.1
2017-Nov-19 09:28N 51°31' W 007°34'1 2.2
2017-Nov-19 09:00N 51°32' W 007°34'1 2.6
2017-Nov-19 08:30N 51°33' W 007°34'1 2.6
2017-Nov-19 08:00N 51°34' W 007°33'1 2.7
2017-Nov-19 07:30N 51°34' W 007°31'10 2.8
2017-Nov-19 03:58N 51°31' W 007°45'1 2.2
2017-Nov-19 03:27N 51°30' W 007°46'1 2.7
2017-Nov-19 03:00N 51°28' W 007°46'2 2.5
2017-Nov-19 02:20N 51°27' W 007°44'15 1.2
2017-Nov-18 13:58N 51°34' W 007°23'14 0.3
2017-Nov-16 12:04N 51°28' W 007°43'0 3.2
2017-Nov-16 12:00N 51°28' W 007°43'1 2.1
2017-Nov-16 11:23N 51°29' W 007°41'3 0.3
2017-Nov-16 03:52N 51°31' W 007°41'1 1.5
2017-Nov-16 03:30N 51°32' W 007°41'1 2.0
2017-Nov-16 03:00N 51°33' W 007°40'1 2.1
2017-Nov-16 02:26N 51°33' W 007°38'1 2.1
2017-Nov-16 01:59N 51°34' W 007°37'1 2.2
2017-Nov-16 01:30N 51°34' W 007°35'1 2.2
2017-Nov-16 00:53N 51°34' W 007°33'1 2.3
2017-Nov-16 00:28N 51°34' W 007°32'3 1.7
2017-Nov-15 22:27N 51°32' W 007°35'1 1.9
2017-Nov-15 22:00N 51°32' W 007°35'1 0.2
2017-Nov-15 15:24N 51°32' W 007°36'2 2.2
2017-Nov-15 14:20N 51°32' W 007°33'1 2.7
2017-Nov-15 13:52N 51°33' W 007°31'7 2.5
2017-Nov-15 11:16N 51°31' W 007°41'1 2.5
2017-Nov-15 11:00N 51°32' W 007°41'1 2.3
2017-Nov-15 10:25N 51°32' W 007°39'2 2.6
2017-Nov-15 09:49N 51°33' W 007°37'1 2.9
2017-Nov-15 09:30N 51°33' W 007°35'4 1.5
2017-Nov-15 07:00N 51°30' W 007°38'3 2.4
2017-Nov-15 05:55N 51°30' W 007°34'2 2.3
2017-Nov-15 05:06N 51°32' W 007°32'1 2.6
2017-Nov-15 04:51N 51°32' W 007°31'1 2.6
2017-Nov-15 04:23N 51°33' W 007°30'1 2.9
2017-Nov-15 03:59N 51°34' W 007°29'9 2.5
2017-Nov-15 00:33N 51°30' W 007°42'0 2.7
2017-Nov-15 00:30N 51°30' W 007°42'2 2.2
2017-Nov-14 23:41N 51°30' W 007°39'0 2.5
2017-Nov-14 23:30N 51°30' W 007°38'2 2.7
2017-Nov-14 22:37N 51°31' W 007°35'5 2.0
2017-Nov-14 19:54N 51°30' W 007°44'1 2.5
2017-Nov-14 19:30N 51°31' W 007°44'1 2.6
2017-Nov-14 19:00N 51°32' W 007°42'2 2.6
2017-Nov-14 18:20N 51°33' W 007°40'1 1.7
2017-Nov-14 17:42N 51°32' W 007°38'1 2.6
2017-Nov-14 17:30N 51°31' W 007°38'1 2.6
2017-Nov-14 16:59N 51°30' W 007°39'1 2.6
2017-Nov-14 16:30N 51°29' W 007°39'1 2.6
2017-Nov-14 16:00N 51°28' W 007°38'1 2.6
2017-Nov-14 15:30N 51°26' W 007°38'1 2.6
2017-Nov-14 15:00N 51°25' W 007°37'3 2.3
2017-Nov-14 13:35N 51°22' W 007°34'0 2.4
2017-Nov-14 13:26N 51°23' W 007°34'1 2.5
2017-Nov-14 12:57N 51°24' W 007°34'1 2.6
2017-Nov-14 12:29N 51°25' W 007°34'3 2.5
2017-Nov-14 11:26N 51°28' W 007°35'3 2.4
2017-Nov-14 10:03N 51°31' W 007°36'1 2.5
2017-Nov-14 09:49N 51°31' W 007°36'1 2.7
2017-Nov-14 09:30N 51°32' W 007°37'0 0.5
2017-Nov-14 09:00N 51°32' W 007°37'4 1.4
2017-Nov-14 06:22N 51°29' W 007°38'1 2.3
2017-Nov-14 05:58N 51°30' W 007°38'1 2.2
2017-Nov-14 05:30N 51°31' W 007°37'1 2.2
2017-Nov-14 04:58N 51°32' W 007°37'1 2.2
2017-Nov-14 04:29N 51°33' W 007°36'1 2.2
2017-Nov-14 03:50N 51°34' W 007°35'2 1.8
2017-Nov-14 02:45N 51°33' W 007°32'  

Dump ship's entire track history